sensor_id;sensor_type;location;lat;lon;timestamp;temperature;humidity
10245;DHT22;5167;52.164;10.530;2023-05-29T00:00:40;17.80;5.00
10245;DHT22;5167;52.164;10.530;2023-05-29T00:03:06;17.80;5.00
10245;DHT22;5167;52.164;10.530;2023-05-29T00:05:31;17.70;5.00
10245;DHT22;5167;52.164;10.530;2023-05-29T00:07:56;17.50;5.00
10245;DHT22;5167;52.164;10.530;2023-05-29T00:10:22;17.50;5.00
10245;DHT22;5167;52.164;10.530;2023-05-29T00:12:48;17.30;5.00
10245;DHT22;5167;52.164;10.530;2023-05-29T00:15:13;17.30;5.00
10245;DHT22;5167;52.164;10.530;2023-05-29T00:17:38;17.20;5.00
10245;DHT22;5167;52.164;10.530;2023-05-29T00:20:05;17.10;5.00
10245;DHT22;5167;52.164;10.530;2023-05-29T00:22:35;17.00;5.00
10245;DHT22;5167;52.164;10.530;2023-05-29T00:25:03;16.90;5.00
10245;DHT22;5167;52.164;10.530;2023-05-29T00:27:29;16.90;5.00
10245;DHT22;5167;52.164;10.530;2023-05-29T00:29:54;16.90;5.00
10245;DHT22;5167;52.164;10.530;2023-05-29T00:32:20;16.80;5.00
10245;DHT22;5167;52.164;10.530;2023-05-29T00:34:45;16.80;5.00
10245;DHT22;5167;52.164;10.530;2023-05-29T00:37:11;17.00;5.00
10245;DHT22;5167;52.164;10.530;2023-05-29T00:39:36;16.70;5.00
10245;DHT22;5167;52.164;10.530;2023-05-29T00:42:02;16.70;5.00
10245;DHT22;5167;52.164;10.530;2023-05-29T00:44:27;16.70;5.00
10245;DHT22;5167;52.164;10.530;2023-05-29T00:46:53;16.70;5.00
10245;DHT22;5167;52.164;10.530;2023-05-29T00:49:20;16.60;5.00
10245;DHT22;5167;52.164;10.530;2023-05-29T00:51:47;16.60;5.00
10245;DHT22;5167;52.164;10.530;2023-05-29T00:54:16;16.50;5.00
10245;DHT22;5167;52.164;10.530;2023-05-29T00:56:43;16.50;5.00
10245;DHT22;5167;52.164;10.530;2023-05-29T00:59:09;16.50;5.00
10245;DHT22;5167;52.164;10.530;2023-05-29T01:01:35;16.40;5.00
10245;DHT22;5167;52.164;10.530;2023-05-29T01:04:03;16.40;5.00
10245;DHT22;5167;52.164;10.530;2023-05-29T01:06:28;16.40;5.00
10245;DHT22;5167;52.164;10.530;2023-05-29T01:08:54;16.40;5.00
10245;DHT22;5167;52.164;10.530;2023-05-29T01:14:09;16.30;5.00
10245;DHT22;5167;52.164;10.530;2023-05-29T01:16:48;16.30;5.00
10245;DHT22;5167;52.164;10.530;2023-05-29T01:19:29;16.30;5.00
10245;DHT22;5167;52.164;10.530;2023-05-29T01:22:13;16.30;5.00
10245;DHT22;5167;52.164;10.530;2023-05-29T01:25:10;16.20;5.00
10245;DHT22;5167;52.164;10.530;2023-05-29T01:27:37;16.40;5.00
10245;DHT22;5167;52.164;10.530;2023-05-29T01:30:05;16.20;5.00
10245;DHT22;5167;52.164;10.530;2023-05-29T01:32:33;16.10;5.00
10245;DHT22;5167;52.164;10.530;2023-05-29T01:34:59;16.10;5.00
10245;DHT22;5167;52.164;10.530;2023-05-29T01:37:24;16.10;5.00
10245;DHT22;5167;52.164;10.530;2023-05-29T01:39:50;16.10;5.00
10245;DHT22;5167;52.164;10.530;2023-05-29T01:42:16;16.00;5.00
10245;DHT22;5167;52.164;10.530;2023-05-29T01:44:41;15.90;5.00
10245;DHT22;5167;52.164;10.530;2023-05-29T01:47:08;15.90;5.00
10245;DHT22;5167;52.164;10.530;2023-05-29T01:49:34;15.80;5.00
10245;DHT22;5167;52.164;10.530;2023-05-29T01:52:01;15.90;5.00
10245;DHT22;5167;52.164;10.530;2023-05-29T01:54:27;15.70;5.00
10245;DHT22;5167;52.164;10.530;2023-05-29T01:56:53;15.70;5.00
10245;DHT22;5167;52.164;10.530;2023-05-29T01:59:19;15.70;5.00
10245;DHT22;5167;52.164;10.530;2023-05-29T02:01:47;15.70;5.00
10245;DHT22;5167;52.164;10.530;2023-05-29T02:04:13;15.60;5.00
10245;DHT22;5167;52.164;10.530;2023-05-29T02:06:38;15.60;5.00
10245;DHT22;5167;52.164;10.530;2023-05-29T02:09:04;15.60;5.00
10245;DHT22;5167;52.164;10.530;2023-05-29T02:11:29;15.50;5.00
10245;DHT22;5167;52.164;10.530;2023-05-29T02:13:54;15.60;5.00
10245;DHT22;5167;52.164;10.530;2023-05-29T02:16:20;15.50;5.00
10245;DHT22;5167;52.164;10.530;2023-05-29T02:18:46;15.50;5.00
10245;DHT22;5167;52.164;10.530;2023-05-29T02:21:12;15.50;5.00
10245;DHT22;5167;52.164;10.530;2023-05-29T02:23:38;15.40;5.00
10245;DHT22;5167;52.164;10.530;2023-05-29T02:26:03;15.40;5.00
10245;DHT22;5167;52.164;10.530;2023-05-29T02:28:29;15.40;5.00
10245;DHT22;5167;52.164;10.530;2023-05-29T02:30:54;15.30;5.00
10245;DHT22;5167;52.164;10.530;2023-05-29T02:33:20;15.30;5.00
10245;DHT22;5167;52.164;10.530;2023-05-29T02:35:45;15.30;5.00
10245;DHT22;5167;52.164;10.530;2023-05-29T02:38:11;15.10;5.00
10245;DHT22;5167;52.164;10.530;2023-05-29T02:40:37;15.20;5.00
10245;DHT22;5167;52.164;10.530;2023-05-29T02:43:02;15.10;5.00
10245;DHT22;5167;52.164;10.530;2023-05-29T02:45:27;15.10;5.00
10245;DHT22;5167;52.164;10.530;2023-05-29T02:47:53;15.10;5.00
10245;DHT22;5167;52.164;10.530;2023-05-29T02:50:19;15.10;5.00
10245;DHT22;5167;52.164;10.530;2023-05-29T02:52:44;15.00;5.00
10245;DHT22;5167;52.164;10.530;2023-05-29T02:55:09;15.10;5.00
10245;DHT22;5167;52.164;10.530;2023-05-29T02:57:35;14.80;5.00
10245;DHT22;5167;52.164;10.530;2023-05-29T03:00:01;15.00;5.00
10245;DHT22;5167;52.164;10.530;2023-05-29T03:02:26;15.00;5.00
10245;DHT22;5167;52.164;10.530;2023-05-29T03:04:52;15.00;5.00
10245;DHT22;5167;52.164;10.530;2023-05-29T03:07:19;15.00;5.00
10245;DHT22;5167;52.164;10.530;2023-05-29T03:09:44;15.00;5.00
10245;DHT22;5167;52.164;10.530;2023-05-29T03:12:10;15.00;5.00
10245;DHT22;5167;52.164;10.530;2023-05-29T03:14:36;15.00;5.00
10245;DHT22;5167;52.164;10.530;2023-05-29T03:17:04;15.00;5.00
10245;DHT22;5167;52.164;10.530;2023-05-29T03:19:30;15.00;5.00
10245;DHT22;5167;52.164;10.530;2023-05-29T03:21:55;14.90;5.00
10245;DHT22;5167;52.164;10.530;2023-05-29T03:24:21;14.90;5.00
10245;DHT22;5167;52.164;10.530;2023-05-29T03:26:49;14.90;5.00
10245;DHT22;5167;52.164;10.530;2023-05-29T03:29:15;15.10;5.00
10245;DHT22;5167;52.164;10.530;2023-05-29T03:31:41;14.60;5.00
10245;DHT22;5167;52.164;10.530;2023-05-29T03:34:07;14.80;5.00
10245;DHT22;5167;52.164;10.530;2023-05-29T03:36:32;14.80;5.00
10245;DHT22;5167;52.164;10.530;2023-05-29T03:38:58;14.80;5.00
10245;DHT22;5167;52.164;10.530;2023-05-29T03:41:24;14.80;5.00
10245;DHT22;5167;52.164;10.530;2023-05-29T03:43:50;14.80;5.00
10245;DHT22;5167;52.164;10.530;2023-05-29T03:46:16;14.80;5.00
10245;DHT22;5167;52.164;10.530;2023-05-29T03:48:41;14.80;5.00
10245;DHT22;5167;52.164;10.530;2023-05-29T03:51:07;14.80;5.00
10245;DHT22;5167;52.164;10.530;2023-05-29T03:53:32;14.80;5.00
10245;DHT22;5167;52.164;10.530;2023-05-29T03:55:58;14.80;5.00
10245;DHT22;5167;52.164;10.530;2023-05-29T03:58:23;14.80;5.00
10245;DHT22;5167;52.164;10.530;2023-05-29T04:00:49;14.60;5.00
10245;DHT22;5167;52.164;10.530;2023-05-29T04:03:14;14.80;5.00
10245;DHT22;5167;52.164;10.530;2023-05-29T04:05:40;14.70;5.00
10245;DHT22;5167;52.164;10.530;2023-05-29T04:08:05;14.70;5.00
10245;DHT22;5167;52.164;10.530;2023-05-29T04:10:34;14.80;5.00
10245;DHT22;5167;52.164;10.530;2023-05-29T04:13:00;14.90;5.00
10245;DHT22;5167;52.164;10.530;2023-05-29T04:15:27;14.70;5.00
10245;DHT22;5167;52.164;10.530;2023-05-29T04:17:53;14.70;5.00
10245;DHT22;5167;52.164;10.530;2023-05-29T04:20:18;14.60;5.00
10245;DHT22;5167;52.164;10.530;2023-05-29T04:22:44;14.60;5.00
10245;DHT22;5167;52.164;10.530;2023-05-29T04:25:09;14.60;5.00
10245;DHT22;5167;52.164;10.530;2023-05-29T04:27:35;14.60;5.00
10245;DHT22;5167;52.164;10.530;2023-05-29T04:30:07;14.60;5.00
10245;DHT22;5167;52.164;10.530;2023-05-29T04:32:33;14.60;5.00
10245;DHT22;5167;52.164;10.530;2023-05-29T04:34:59;14.70;5.00
10245;DHT22;5167;52.164;10.530;2023-05-29T04:37:30;14.60;5.00
10245;DHT22;5167;52.164;10.530;2023-05-29T04:40:06;14.60;5.00
10245;DHT22;5167;52.164;10.530;2023-05-29T04:42:36;14.60;5.00
10245;DHT22;5167;52.164;10.530;2023-05-29T04:45:02;14.60;5.00
10245;DHT22;5167;52.164;10.530;2023-05-29T04:47:29;14.60;5.00
10245;DHT22;5167;52.164;10.530;2023-05-29T04:49:54;14.60;5.00
10245;DHT22;5167;52.164;10.530;2023-05-29T04:52:20;14.70;5.00
10245;DHT22;5167;52.164;10.530;2023-05-29T04:54:46;14.70;5.00
10245;DHT22;5167;52.164;10.530;2023-05-29T04:57:12;14.70;5.00
10245;DHT22;5167;52.164;10.530;2023-05-29T04:59:37;14.70;5.00
10245;DHT22;5167;52.164;10.530;2023-05-29T05:02:03;14.90;5.00
10245;DHT22;5167;52.164;10.530;2023-05-29T05:04:28;14.80;5.00
10245;DHT22;5167;52.164;10.530;2023-05-29T05:06:54;14.80;5.00
10245;DHT22;5167;52.164;10.530;2023-05-29T05:09:19;14.80;5.00
10245;DHT22;5167;52.164;10.530;2023-05-29T05:11:44;14.80;5.00
10245;DHT22;5167;52.164;10.530;2023-05-29T05:14:10;15.00;5.00
10245;DHT22;5167;52.164;10.530;2023-05-29T05:16:35;14.90;5.00
10245;DHT22;5167;52.164;10.530;2023-05-29T05:19:01;15.00;5.00
10245;DHT22;5167;52.164;10.530;2023-05-29T05:21:26;15.00;5.00
10245;DHT22;5167;52.164;10.530;2023-05-29T05:23:52;15.10;5.00
10245;DHT22;5167;52.164;10.530;2023-05-29T05:26:17;15.00;5.00
10245;DHT22;5167;52.164;10.530;2023-05-29T05:28:43;15.20;5.00
10245;DHT22;5167;52.164;10.530;2023-05-29T05:31:08;15.20;5.00
10245;DHT22;5167;52.164;10.530;2023-05-29T05:33:34;15.30;5.00
10245;DHT22;5167;52.164;10.530;2023-05-29T05:35:59;15.30;5.00
10245;DHT22;5167;52.164;10.530;2023-05-29T05:38:25;15.40;5.00
10245;DHT22;5167;52.164;10.530;2023-05-29T05:40:51;15.50;5.00
10245;DHT22;5167;52.164;10.530;2023-05-29T05:43:16;15.50;5.00
10245;DHT22;5167;52.164;10.530;2023-05-29T05:45:42;15.50;5.00
10245;DHT22;5167;52.164;10.530;2023-05-29T05:48:08;15.50;5.00
10245;DHT22;5167;52.164;10.530;2023-05-29T05:50:34;15.70;5.00
10245;DHT22;5167;52.164;10.530;2023-05-29T05:53:00;15.60;5.00
10245;DHT22;5167;52.164;10.530;2023-05-29T05:55:25;15.60;5.00
10245;DHT22;5167;52.164;10.530;2023-05-29T05:57:53;15.70;5.00
10245;DHT22;5167;52.164;10.530;2023-05-29T06:00:19;15.90;5.00
10245;DHT22;5167;52.164;10.530;2023-05-29T06:02:45;16.00;5.00
10245;DHT22;5167;52.164;10.530;2023-05-29T06:05:11;16.30;5.00
10245;DHT22;5167;52.164;10.530;2023-05-29T06:07:37;16.40;5.00
10245;DHT22;5167;52.164;10.530;2023-05-29T06:10:03;16.50;5.00
10245;DHT22;5167;52.164;10.530;2023-05-29T06:12:29;16.70;5.00
10245;DHT22;5167;52.164;10.530;2023-05-29T06:14:54;16.80;5.00
10245;DHT22;5167;52.164;10.530;2023-05-29T06:17:20;17.00;5.00
10245;DHT22;5167;52.164;10.530;2023-05-29T06:19:46;17.00;5.00
10245;DHT22;5167;52.164;10.530;2023-05-29T06:22:13;17.10;5.00
10245;DHT22;5167;52.164;10.530;2023-05-29T06:24:39;17.00;5.00
10245;DHT22;5167;52.164;10.530;2023-05-29T06:27:04;17.50;5.00
10245;DHT22;5167;52.164;10.530;2023-05-29T06:29:31;17.70;5.00
10245;DHT22;5167;52.164;10.530;2023-05-29T06:31:57;17.60;5.00
10245;DHT22;5167;52.164;10.530;2023-05-29T06:34:22;17.80;5.00
10245;DHT22;5167;52.164;10.530;2023-05-29T06:36:48;18.00;5.00
10245;DHT22;5167;52.164;10.530;2023-05-29T06:39:13;18.00;5.00
10245;DHT22;5167;52.164;10.530;2023-05-29T06:41:39;18.00;5.00
10245;DHT22;5167;52.164;10.530;2023-05-29T06:44:05;18.10;5.00
10245;DHT22;5167;52.164;10.530;2023-05-29T06:46:30;18.20;5.00
10245;DHT22;5167;52.164;10.530;2023-05-29T06:48:56;18.30;5.00
10245;DHT22;5167;52.164;10.530;2023-05-29T06:51:21;18.40;5.00
10245;DHT22;5167;52.164;10.530;2023-05-29T06:53:47;18.50;5.00
10245;DHT22;5167;52.164;10.530;2023-05-29T06:56:12;18.60;5.00
10245;DHT22;5167;52.164;10.530;2023-05-29T06:58:38;18.70;5.00
10245;DHT22;5167;52.164;10.530;2023-05-29T07:01:03;18.80;5.00
10245;DHT22;5167;52.164;10.530;2023-05-29T07:03:29;18.90;5.00
10245;DHT22;5167;52.164;10.530;2023-05-29T07:05:55;19.00;5.00
10245;DHT22;5167;52.164;10.530;2023-05-29T07:08:20;19.10;5.00
10245;DHT22;5167;52.164;10.530;2023-05-29T07:10:46;19.10;5.00
10245;DHT22;5167;52.164;10.530;2023-05-29T07:13:15;19.20;5.00
10245;DHT22;5167;52.164;10.530;2023-05-29T07:15:41;19.30;5.00
10245;DHT22;5167;52.164;10.530;2023-05-29T07:18:07;19.30;5.00
10245;DHT22;5167;52.164;10.530;2023-05-29T07:20:32;19.40;5.00
10245;DHT22;5167;52.164;10.530;2023-05-29T07:22:58;19.50;5.00
10245;DHT22;5167;52.164;10.530;2023-05-29T07:25:23;19.80;5.00
10245;DHT22;5167;52.164;10.530;2023-05-29T07:27:49;19.70;5.00
10245;DHT22;5167;52.164;10.530;2023-05-29T07:30:14;19.80;5.00
10245;DHT22;5167;52.164;10.530;2023-05-29T07:32:40;19.80;5.00
10245;DHT22;5167;52.164;10.530;2023-05-29T07:35:06;19.80;5.00
10245;DHT22;5167;52.164;10.530;2023-05-29T07:37:32;19.80;5.00
10245;DHT22;5167;52.164;10.530;2023-05-29T07:39:57;19.80;5.00
10245;DHT22;5167;52.164;10.530;2023-05-29T07:42:23;19.80;5.00
10245;DHT22;5167;52.164;10.530;2023-05-29T07:44:48;19.90;5.00
10245;DHT22;5167;52.164;10.530;2023-05-29T07:47:14;19.90;5.00
10245;DHT22;5167;52.164;10.530;2023-05-29T07:49:40;20.00;5.00
10245;DHT22;5167;52.164;10.530;2023-05-29T07:52:05;20.00;5.00
10245;DHT22;5167;52.164;10.530;2023-05-29T07:54:32;20.00;5.00
10245;DHT22;5167;52.164;10.530;2023-05-29T07:56:58;20.20;5.00
10245;DHT22;5167;52.164;10.530;2023-05-29T07:59:26;20.10;5.00
10245;DHT22;5167;52.164;10.530;2023-05-29T08:01:51;20.40;5.00
10245;DHT22;5167;52.164;10.530;2023-05-29T08:04:17;20.40;5.00
10245;DHT22;5167;52.164;10.530;2023-05-29T08:06:43;20.60;5.00
10245;DHT22;5167;52.164;10.530;2023-05-29T08:09:09;20.90;5.00
10245;DHT22;5167;52.164;10.530;2023-05-29T08:11:36;20.80;5.00
10245;DHT22;5167;52.164;10.530;2023-05-29T08:14:01;20.90;5.00
10245;DHT22;5167;52.164;10.530;2023-05-29T08:16:27;20.90;5.00
10245;DHT22;5167;52.164;10.530;2023-05-29T08:18:53;21.00;5.00
10245;DHT22;5167;52.164;10.530;2023-05-29T08:21:18;20.90;5.00
10245;DHT22;5167;52.164;10.530;2023-05-29T08:23:44;21.20;5.00
10245;DHT22;5167;52.164;10.530;2023-05-29T08:26:09;21.20;5.00
10245;DHT22;5167;52.164;10.530;2023-05-29T08:28:35;21.30;5.00
10245;DHT22;5167;52.164;10.530;2023-05-29T08:31:01;21.60;5.00
10245;DHT22;5167;52.164;10.530;2023-05-29T08:33:27;21.60;5.00
10245;DHT22;5167;52.164;10.530;2023-05-29T08:35:52;21.60;5.00
10245;DHT22;5167;52.164;10.530;2023-05-29T08:38:18;21.80;5.00
10245;DHT22;5167;52.164;10.530;2023-05-29T08:40:43;21.80;5.00
10245;DHT22;5167;52.164;10.530;2023-05-29T08:43:21;21.80;5.00
10245;DHT22;5167;52.164;10.530;2023-05-29T08:45:49;21.90;5.00
10245;DHT22;5167;52.164;10.530;2023-05-29T08:48:19;22.00;5.00
10245;DHT22;5167;52.164;10.530;2023-05-29T08:50:46;22.10;5.00
10245;DHT22;5167;52.164;10.530;2023-05-29T08:53:13;22.20;5.00
10245;DHT22;5167;52.164;10.530;2023-05-29T08:55:39;22.20;5.00
10245;DHT22;5167;52.164;10.530;2023-05-29T08:58:09;22.20;5.00
10245;DHT22;5167;52.164;10.530;2023-05-29T09:00:37;22.30;5.00
10245;DHT22;5167;52.164;10.530;2023-05-29T09:03:02;22.40;5.00
10245;DHT22;5167;52.164;10.530;2023-05-29T09:05:28;22.40;5.00
10245;DHT22;5167;52.164;10.530;2023-05-29T09:07:55;22.30;5.00
10245;DHT22;5167;52.164;10.530;2023-05-29T09:10:21;22.40;5.00
10245;DHT22;5167;52.164;10.530;2023-05-29T09:12:47;22.40;5.00
10245;DHT22;5167;52.164;10.530;2023-05-29T09:15:20;22.50;5.00
10245;DHT22;5167;52.164;10.530;2023-05-29T09:17:50;22.60;5.00
10245;DHT22;5167;52.164;10.530;2023-05-29T09:20:17;22.70;5.00
10245;DHT22;5167;52.164;10.530;2023-05-29T09:22:59;22.80;5.00
10245;DHT22;5167;52.164;10.530;2023-05-29T09:25:27;22.80;5.00
10245;DHT22;5167;52.164;10.530;2023-05-29T09:28:04;22.90;5.00
10245;DHT22;5167;52.164;10.530;2023-05-29T09:32:59;22.80;5.00
10245;DHT22;5167;52.164;10.530;2023-05-29T09:35:25;22.80;5.00
10245;DHT22;5167;52.164;10.530;2023-05-29T09:37:52;23.00;5.00
10245;DHT22;5167;52.164;10.530;2023-05-29T09:40:17;23.00;5.00
10245;DHT22;5167;52.164;10.530;2023-05-29T09:42:43;23.00;5.00
10245;DHT22;5167;52.164;10.530;2023-05-29T09:45:09;23.10;5.00
10245;DHT22;5167;52.164;10.530;2023-05-29T09:47:34;23.20;5.00
10245;DHT22;5167;52.164;10.530;2023-05-29T09:50:00;23.20;5.00
10245;DHT22;5167;52.164;10.530;2023-05-29T09:52:29;23.30;5.00
10245;DHT22;5167;52.164;10.530;2023-05-29T09:54:55;23.30;5.00
10245;DHT22;5167;52.164;10.530;2023-05-29T09:57:23;23.30;5.00
10245;DHT22;5167;52.164;10.530;2023-05-29T09:59:50;23.40;5.00
10245;DHT22;5167;52.164;10.530;2023-05-29T10:02:18;23.40;5.00
10245;DHT22;5167;52.164;10.530;2023-05-29T10:04:44;23.40;5.00
10245;DHT22;5167;52.164;10.530;2023-05-29T10:07:15;23.50;5.00
10245;DHT22;5167;52.164;10.530;2023-05-29T10:09:47;23.50;5.00
10245;DHT22;5167;52.164;10.530;2023-05-29T10:12:19;23.60;5.00
10245;DHT22;5167;52.164;10.530;2023-05-29T10:14:49;23.60;5.00
10245;DHT22;5167;52.164;10.530;2023-05-29T10:17:15;23.60;5.00
10245;DHT22;5167;52.164;10.530;2023-05-29T10:19:45;23.80;5.00
10245;DHT22;5167;52.164;10.530;2023-05-29T10:22:13;23.80;5.00
10245;DHT22;5167;52.164;10.530;2023-05-29T10:24:39;23.70;5.00
10245;DHT22;5167;52.164;10.530;2023-05-29T10:27:05;24.00;5.00
10245;DHT22;5167;52.164;10.530;2023-05-29T10:29:41;24.00;5.00
10245;DHT22;5167;52.164;10.530;2023-05-29T10:32:36;24.10;5.00
10245;DHT22;5167;52.164;10.530;2023-05-29T10:35:28;24.10;5.00
10245;DHT22;5167;52.164;10.530;2023-05-29T10:38:19;24.10;5.00
10245;DHT22;5167;52.164;10.530;2023-05-29T10:40:46;24.20;5.00
10245;DHT22;5167;52.164;10.530;2023-05-29T10:43:31;24.10;5.00
10245;DHT22;5167;52.164;10.530;2023-05-29T10:46:01;24.20;5.00
10245;DHT22;5167;52.164;10.530;2023-05-29T10:50:55;24.30;5.00
10245;DHT22;5167;52.164;10.530;2023-05-29T10:53:26;24.40;5.00
10245;DHT22;5167;52.164;10.530;2023-05-29T10:55:56;24.40;5.00
10245;DHT22;5167;52.164;10.530;2023-05-29T10:58:23;24.50;5.00
10245;DHT22;5167;52.164;10.530;2023-05-29T11:00:49;24.50;5.00
10245;DHT22;5167;52.164;10.530;2023-05-29T11:03:19;24.50;5.00
10245;DHT22;5167;52.164;10.530;2023-05-29T11:06:06;24.60;5.00
10245;DHT22;5167;52.164;10.530;2023-05-29T11:08:45;24.50;5.00
10245;DHT22;5167;52.164;10.530;2023-05-29T11:11:12;24.60;5.00
10245;DHT22;5167;52.164;10.530;2023-05-29T11:13:38;24.50;5.00
10245;DHT22;5167;52.164;10.530;2023-05-29T11:18:51;24.50;5.00
10245;DHT22;5167;52.164;10.530;2023-05-29T11:24:23;24.50;5.00
10245;DHT22;5167;52.164;10.530;2023-05-29T11:26:54;24.40;5.00
10245;DHT22;5167;52.164;10.530;2023-05-29T11:29:29;24.50;5.00
10245;DHT22;5167;52.164;10.530;2023-05-29T11:31:58;24.50;5.00
10245;DHT22;5167;52.164;10.530;2023-05-29T11:34:28;24.50;5.00
10245;DHT22;5167;52.164;10.530;2023-05-29T11:36:56;24.50;5.00
10245;DHT22;5167;52.164;10.530;2023-05-29T11:39:21;24.50;5.00
10245;DHT22;5167;52.164;10.530;2023-05-29T11:41:50;24.50;5.00
10245;DHT22;5167;52.164;10.530;2023-05-29T11:44:16;24.50;5.00
10245;DHT22;5167;52.164;10.530;2023-05-29T11:46:42;24.50;5.00
10245;DHT22;5167;52.164;10.530;2023-05-29T11:49:07;24.60;5.00
10245;DHT22;5167;52.164;10.530;2023-05-29T11:51:33;24.60;5.00
10245;DHT22;5167;52.164;10.530;2023-05-29T11:53:59;24.60;5.00
10245;DHT22;5167;52.164;10.530;2023-05-29T11:56:25;24.50;5.00
10245;DHT22;5167;52.164;10.530;2023-05-29T11:58:51;24.50;5.00
10245;DHT22;5167;52.164;10.530;2023-05-29T12:01:20;24.50;5.00
10245;DHT22;5167;52.164;10.530;2023-05-29T12:03:46;24.40;5.00
10245;DHT22;5167;52.164;10.530;2023-05-29T12:06:11;24.40;5.00
10245;DHT22;5167;52.164;10.530;2023-05-29T12:08:38;24.40;5.00
10245;DHT22;5167;52.164;10.530;2023-05-29T12:11:05;24.40;5.00
10245;DHT22;5167;52.164;10.530;2023-05-29T12:13:31;24.30;5.00
10245;DHT22;5167;52.164;10.530;2023-05-29T12:15:57;24.30;5.00
10245;DHT22;5167;52.164;10.530;2023-05-29T12:18:24;24.30;5.00
10245;DHT22;5167;52.164;10.530;2023-05-29T12:20:50;24.30;5.00
10245;DHT22;5167;52.164;10.530;2023-05-29T12:23:18;24.30;5.00
10245;DHT22;5167;52.164;10.530;2023-05-29T12:25:46;24.40;5.00
10245;DHT22;5167;52.164;10.530;2023-05-29T12:28:16;24.30;5.00
10245;DHT22;5167;52.164;10.530;2023-05-29T12:30:44;24.30;5.00
10245;DHT22;5167;52.164;10.530;2023-05-29T12:33:31;24.20;5.00
10245;DHT22;5167;52.164;10.530;2023-05-29T12:36:08;24.30;5.00
10245;DHT22;5167;52.164;10.530;2023-05-29T12:38:50;24.20;5.00
10245;DHT22;5167;52.164;10.530;2023-05-29T12:41:23;24.20;5.00
10245;DHT22;5167;52.164;10.530;2023-05-29T12:43:49;24.20;5.00
10245;DHT22;5167;52.164;10.530;2023-05-29T12:46:14;24.20;5.00
10245;DHT22;5167;52.164;10.530;2023-05-29T12:48:40;24.20;5.00
10245;DHT22;5167;52.164;10.530;2023-05-29T12:51:06;24.20;5.00
10245;DHT22;5167;52.164;10.530;2023-05-29T12:53:33;24.20;5.00
10245;DHT22;5167;52.164;10.530;2023-05-29T12:55:58;24.10;5.00
10245;DHT22;5167;52.164;10.530;2023-05-29T12:58:24;24.00;5.00
10245;DHT22;5167;52.164;10.530;2023-05-29T13:00:53;24.00;5.00
10245;DHT22;5167;52.164;10.530;2023-05-29T13:03:21;23.90;5.00
10245;DHT22;5167;52.164;10.530;2023-05-29T13:05:50;23.80;5.00
10245;DHT22;5167;52.164;10.530;2023-05-29T13:08:16;23.90;5.00
10245;DHT22;5167;52.164;10.530;2023-05-29T13:10:43;24.00;5.00
10245;DHT22;5167;52.164;10.530;2023-05-29T13:13:09;23.90;5.00
10245;DHT22;5167;52.164;10.530;2023-05-29T13:15:35;23.90;5.00
10245;DHT22;5167;52.164;10.530;2023-05-29T13:18:01;23.90;5.00
10245;DHT22;5167;52.164;10.530;2023-05-29T13:20:26;24.00;5.00
10245;DHT22;5167;52.164;10.530;2023-05-29T13:22:52;24.00;5.00
10245;DHT22;5167;52.164;10.530;2023-05-29T13:25:19;24.00;5.00
10245;DHT22;5167;52.164;10.530;2023-05-29T13:27:49;24.10;5.00
10245;DHT22;5167;52.164;10.530;2023-05-29T13:30:15;24.10;5.00
10245;DHT22;5167;52.164;10.530;2023-05-29T13:32:42;24.00;5.00
10245;DHT22;5167;52.164;10.530;2023-05-29T13:35:08;24.10;5.00
10245;DHT22;5167;52.164;10.530;2023-05-29T13:37:34;24.00;5.00
10245;DHT22;5167;52.164;10.530;2023-05-29T13:40:01;24.00;5.00
10245;DHT22;5167;52.164;10.530;2023-05-29T13:42:26;24.00;5.00
10245;DHT22;5167;52.164;10.530;2023-05-29T13:44:53;24.00;5.00
10245;DHT22;5167;52.164;10.530;2023-05-29T13:47:19;24.00;5.00
10245;DHT22;5167;52.164;10.530;2023-05-29T13:49:44;24.10;5.00
10245;DHT22;5167;52.164;10.530;2023-05-29T13:52:10;24.00;5.00
10245;DHT22;5167;52.164;10.530;2023-05-29T13:54:35;24.10;5.00
10245;DHT22;5167;52.164;10.530;2023-05-29T13:57:05;24.00;5.00
10245;DHT22;5167;52.164;10.530;2023-05-29T13:59:34;24.00;5.00
10245;DHT22;5167;52.164;10.530;2023-05-29T14:02:01;24.00;5.00
10245;DHT22;5167;52.164;10.530;2023-05-29T14:04:28;24.00;5.00
10245;DHT22;5167;52.164;10.530;2023-05-29T14:06:54;24.00;5.00
10245;DHT22;5167;52.164;10.530;2023-05-29T14:09:21;24.00;5.00
10245;DHT22;5167;52.164;10.530;2023-05-29T14:11:59;24.00;5.00
10245;DHT22;5167;52.164;10.530;2023-05-29T14:14:26;23.90;5.00
10245;DHT22;5167;52.164;10.530;2023-05-29T14:16:52;23.90;5.00
10245;DHT22;5167;52.164;10.530;2023-05-29T14:19:19;23.80;5.00
10245;DHT22;5167;52.164;10.530;2023-05-29T14:21:45;23.70;5.00
10245;DHT22;5167;52.164;10.530;2023-05-29T14:24:11;23.70;5.00
10245;DHT22;5167;52.164;10.530;2023-05-29T14:26:36;23.70;5.00
10245;DHT22;5167;52.164;10.530;2023-05-29T14:29:03;23.60;5.00
10245;DHT22;5167;52.164;10.530;2023-05-29T14:31:28;23.60;5.00
10245;DHT22;5167;52.164;10.530;2023-05-29T14:33:54;23.60;5.00
10245;DHT22;5167;52.164;10.530;2023-05-29T14:36:19;23.60;5.00
10245;DHT22;5167;52.164;10.530;2023-05-29T14:38:45;23.70;5.00
10245;DHT22;5167;52.164;10.530;2023-05-29T14:41:11;23.60;5.00
10245;DHT22;5167;52.164;10.530;2023-05-29T14:43:38;23.60;5.00
10245;DHT22;5167;52.164;10.530;2023-05-29T14:46:04;23.70;5.00
10245;DHT22;5167;52.164;10.530;2023-05-29T14:48:30;23.60;5.00
10245;DHT22;5167;52.164;10.530;2023-05-29T14:50:55;23.50;5.00
10245;DHT22;5167;52.164;10.530;2023-05-29T14:53:21;23.60;5.00
10245;DHT22;5167;52.164;10.530;2023-05-29T14:55:48;23.50;5.00
10245;DHT22;5167;52.164;10.530;2023-05-29T14:58:13;23.40;5.00
10245;DHT22;5167;52.164;10.530;2023-05-29T15:00:39;23.30;5.00
10245;DHT22;5167;52.164;10.530;2023-05-29T15:03:05;23.30;5.00
10245;DHT22;5167;52.164;10.530;2023-05-29T15:05:30;23.30;5.00
10245;DHT22;5167;52.164;10.530;2023-05-29T15:07:56;23.30;5.00
10245;DHT22;5167;52.164;10.530;2023-05-29T15:10:25;23.30;5.00
10245;DHT22;5167;52.164;10.530;2023-05-29T15:12:52;23.30;5.00
10245;DHT22;5167;52.164;10.530;2023-05-29T15:15:25;23.20;5.00
10245;DHT22;5167;52.164;10.530;2023-05-29T15:17:51;23.20;5.00
10245;DHT22;5167;52.164;10.530;2023-05-29T15:20:21;23.30;5.00
10245;DHT22;5167;52.164;10.530;2023-05-29T15:22:47;23.20;5.00
10245;DHT22;5167;52.164;10.530;2023-05-29T15:25:14;23.20;5.00
10245;DHT22;5167;52.164;10.530;2023-05-29T15:27:39;23.20;5.00
10245;DHT22;5167;52.164;10.530;2023-05-29T15:32:35;23.20;5.00
10245;DHT22;5167;52.164;10.530;2023-05-29T15:35:00;23.20;5.00
10245;DHT22;5167;52.164;10.530;2023-05-29T15:37:26;23.20;5.00
10245;DHT22;5167;52.164;10.530;2023-05-29T15:39:51;23.30;5.00
10245;DHT22;5167;52.164;10.530;2023-05-29T15:42:20;23.30;5.00
10245;DHT22;5167;52.164;10.530;2023-05-29T15:44:47;23.20;5.00
10245;DHT22;5167;52.164;10.530;2023-05-29T15:47:12;23.10;5.00
10245;DHT22;5167;52.164;10.530;2023-05-29T15:49:38;23.00;5.00
10245;DHT22;5167;52.164;10.530;2023-05-29T15:52:03;23.00;5.00
10245;DHT22;5167;52.164;10.530;2023-05-29T15:54:29;23.00;5.00
10245;DHT22;5167;52.164;10.530;2023-05-29T15:56:54;23.00;5.00
10245;DHT22;5167;52.164;10.530;2023-05-29T15:59:20;23.00;5.00